sensor_id;sensor_type;location;lat;lon;timestamp;P1;durP1;ratioP1;P2;durP2;ratioP2
23573;SDS011;11965;53.640;10.050;2023-04-28T00:00:34;17.14;;;17.10;;
23573;SDS011;11965;53.640;10.050;2023-04-28T00:03:02;17.25;;;17.25;;
23573;SDS011;11965;53.640;10.050;2023-04-28T00:05:29;17.71;;;17.58;;
23573;SDS011;11965;53.640;10.050;2023-04-28T00:07:55;17.15;;;17.08;;
23573;SDS011;11965;53.640;10.050;2023-04-28T00:10:22;17.31;;;17.27;;
23573;SDS011;11965;53.640;10.050;2023-04-28T00:12:51;16.76;;;16.74;;
23573;SDS011;11965;53.640;10.050;2023-04-28T00:15:17;18.23;;;17.60;;
23573;SDS011;11965;53.640;10.050;2023-04-28T00:17:44;17.57;;;17.25;;
23573;SDS011;11965;53.640;10.050;2023-04-28T00:20:11;16.71;;;16.70;;
23573;SDS011;11965;53.640;10.050;2023-04-28T00:22:38;16.66;;;16.65;;
23573;SDS011;11965;53.640;10.050;2023-04-28T00:25:05;16.58;;;16.58;;
23573;SDS011;11965;53.640;10.050;2023-04-28T00:27:32;16.78;;;16.78;;
23573;SDS011;11965;53.640;10.050;2023-04-28T00:30:01;16.73;;;16.72;;
23573;SDS011;11965;53.640;10.050;2023-04-28T00:32:28;16.58;;;16.58;;
23573;SDS011;11965;53.640;10.050;2023-04-28T00:34:55;16.46;;;16.46;;
23573;SDS011;11965;53.640;10.050;2023-04-28T00:37:25;17.33;;;17.11;;
23573;SDS011;11965;53.640;10.050;2023-04-28T00:39:55;16.03;;;16.00;;
23573;SDS011;11965;53.640;10.050;2023-04-28T00:42:22;17.42;;;17.36;;
23573;SDS011;11965;53.640;10.050;2023-04-28T00:44:49;17.11;;;17.10;;
23573;SDS011;11965;53.640;10.050;2023-04-28T00:47:18;17.08;;;16.97;;
23573;SDS011;11965;53.640;10.050;2023-04-28T00:49:45;16.31;;;16.26;;
23573;SDS011;11965;53.640;10.050;2023-04-28T00:52:13;16.64;;;16.64;;
23573;SDS011;11965;53.640;10.050;2023-04-28T00:54:43;16.30;;;16.24;;
23573;SDS011;11965;53.640;10.050;2023-04-28T00:57:11;16.51;;;16.36;;
23573;SDS011;11965;53.640;10.050;2023-04-28T00:59:39;16.17;;;16.13;;
23573;SDS011;11965;53.640;10.050;2023-04-28T01:02:05;16.12;;;16.12;;
23573;SDS011;11965;53.640;10.050;2023-04-28T01:04:34;16.29;;;16.28;;
23573;SDS011;11965;53.640;10.050;2023-04-28T01:07:02;16.78;;;16.66;;
23573;SDS011;11965;53.640;10.050;2023-04-28T01:09:30;16.30;;;16.28;;
23573;SDS011;11965;53.640;10.050;2023-04-28T01:11:57;16.29;;;16.29;;
23573;SDS011;11965;53.640;10.050;2023-04-28T01:14:36;15.97;;;15.96;;
23573;SDS011;11965;53.640;10.050;2023-04-28T01:17:04;16.48;;;16.38;;
23573;SDS011;11965;53.640;10.050;2023-04-28T01:19:34;16.89;;;16.72;;
23573;SDS011;11965;53.640;10.050;2023-04-28T01:22:01;16.14;;;16.13;;
23573;SDS011;11965;53.640;10.050;2023-04-28T01:24:30;15.77;;;15.77;;
23573;SDS011;11965;53.640;10.050;2023-04-28T01:27:01;16.33;;;16.32;;
23573;SDS011;11965;53.640;10.050;2023-04-28T01:29:28;16.68;;;16.65;;
23573;SDS011;11965;53.640;10.050;2023-04-28T01:31:55;15.90;;;15.90;;
23573;SDS011;11965;53.640;10.050;2023-04-28T01:34:22;16.66;;;16.64;;
23573;SDS011;11965;53.640;10.050;2023-04-28T01:36:49;16.35;;;16.35;;
23573;SDS011;11965;53.640;10.050;2023-04-28T01:39:16;16.24;;;16.23;;
23573;SDS011;11965;53.640;10.050;2023-04-28T01:41:45;16.51;;;16.40;;
23573;SDS011;11965;53.640;10.050;2023-04-28T01:44:12;16.71;;;16.44;;
23573;SDS011;11965;53.640;10.050;2023-04-28T01:46:39;16.07;;;16.05;;
23573;SDS011;11965;53.640;10.050;2023-04-28T01:49:06;16.79;;;16.44;;
23573;SDS011;11965;53.640;10.050;2023-04-28T01:51:33;15.94;;;15.72;;
23573;SDS011;11965;53.640;10.050;2023-04-28T01:54:00;16.48;;;15.96;;
23573;SDS011;11965;53.640;10.050;2023-04-28T01:56:28;15.98;;;15.79;;
23573;SDS011;11965;53.640;10.050;2023-04-28T01:58:58;15.76;;;15.55;;
23573;SDS011;11965;53.640;10.050;2023-04-28T02:01:25;17.29;;;16.97;;
23573;SDS011;11965;53.640;10.050;2023-04-28T02:03:52;15.84;;;15.61;;
23573;SDS011;11965;53.640;10.050;2023-04-28T02:06:20;16.44;;;16.21;;
23573;SDS011;11965;53.640;10.050;2023-04-28T02:08:47;15.57;;;15.53;;
23573;SDS011;11965;53.640;10.050;2023-04-28T02:11:14;15.87;;;15.71;;
23573;SDS011;11965;53.640;10.050;2023-04-28T02:13:40;16.16;;;15.98;;
23573;SDS011;11965;53.640;10.050;2023-04-28T02:16:09;15.81;;;15.74;;
23573;SDS011;11965;53.640;10.050;2023-04-28T02:18:36;16.02;;;15.91;;
23573;SDS011;11965;53.640;10.050;2023-04-28T02:21:08;15.21;;;15.21;;
23573;SDS011;11965;53.640;10.050;2023-04-28T02:23:36;15.74;;;15.60;;
23573;SDS011;11965;53.640;10.050;2023-04-28T02:26:04;15.88;;;15.74;;
23573;SDS011;11965;53.640;10.050;2023-04-28T02:28:31;16.15;;;16.09;;
23573;SDS011;11965;53.640;10.050;2023-04-28T02:31:05;15.83;;;15.83;;
23573;SDS011;11965;53.640;10.050;2023-04-28T02:33:34;15.28;;;15.19;;
23573;SDS011;11965;53.640;10.050;2023-04-28T02:36:02;15.60;;;15.45;;
23573;SDS011;11965;53.640;10.050;2023-04-28T02:38:33;15.42;;;15.29;;
23573;SDS011;11965;53.640;10.050;2023-04-28T02:41:01;15.64;;;15.28;;
23573;SDS011;11965;53.640;10.050;2023-04-28T02:43:30;15.88;;;15.52;;
23573;SDS011;11965;53.640;10.050;2023-04-28T02:45:58;15.63;;;15.49;;
23573;SDS011;11965;53.640;10.050;2023-04-28T02:48:25;16.01;;;15.71;;
23573;SDS011;11965;53.640;10.050;2023-04-28T02:50:54;15.86;;;15.81;;
23573;SDS011;11965;53.640;10.050;2023-04-28T02:53:21;15.16;;;15.14;;
23573;SDS011;11965;53.640;10.050;2023-04-28T02:55:49;16.42;;;16.04;;
23573;SDS011;11965;53.640;10.050;2023-04-28T02:58:16;16.15;;;15.97;;
23573;SDS011;11965;53.640;10.050;2023-04-28T03:00:43;15.97;;;15.75;;
23573;SDS011;11965;53.640;10.050;2023-04-28T03:03:11;16.30;;;16.16;;
23573;SDS011;11965;53.640;10.050;2023-04-28T03:05:39;16.01;;;15.89;;
23573;SDS011;11965;53.640;10.050;2023-04-28T03:08:07;16.52;;;15.99;;
23573;SDS011;11965;53.640;10.050;2023-04-28T03:10:34;15.30;;;15.26;;
23573;SDS011;11965;53.640;10.050;2023-04-28T03:13:02;16.14;;;16.09;;
23573;SDS011;11965;53.640;10.050;2023-04-28T03:15:29;16.36;;;16.21;;
23573;SDS011;11965;53.640;10.050;2023-04-28T03:17:56;15.53;;;15.39;;
23573;SDS011;11965;53.640;10.050;2023-04-28T03:20:25;16.40;;;15.87;;
23573;SDS011;11965;53.640;10.050;2023-04-28T03:22:55;16.55;;;16.33;;
23573;SDS011;11965;53.640;10.050;2023-04-28T03:25:25;16.15;;;15.90;;
23573;SDS011;11965;53.640;10.050;2023-04-28T03:27:52;16.19;;;16.02;;
23573;SDS011;11965;53.640;10.050;2023-04-28T03:30:20;16.20;;;16.13;;
23573;SDS011;11965;53.640;10.050;2023-04-28T03:32:47;16.68;;;16.56;;
23573;SDS011;11965;53.640;10.050;2023-04-28T03:35:14;16.62;;;16.50;;
23573;SDS011;11965;53.640;10.050;2023-04-28T03:37:42;17.17;;;16.62;;
23573;SDS011;11965;53.640;10.050;2023-04-28T03:40:09;17.18;;;16.96;;
23573;SDS011;11965;53.640;10.050;2023-04-28T03:43:01;16.10;;;15.95;;
23573;SDS011;11965;53.640;10.050;2023-04-28T03:45:33;17.47;;;16.93;;
23573;SDS011;11965;53.640;10.050;2023-04-28T03:48:00;16.70;;;16.67;;
23573;SDS011;11965;53.640;10.050;2023-04-28T03:50:27;17.03;;;16.70;;
23573;SDS011;11965;53.640;10.050;2023-04-28T03:52:54;15.84;;;15.84;;
23573;SDS011;11965;53.640;10.050;2023-04-28T03:55:21;15.76;;;15.70;;
23573;SDS011;11965;53.640;10.050;2023-04-28T03:57:49;15.62;;;15.58;;
23573;SDS011;11965;53.640;10.050;2023-04-28T04:00:18;15.86;;;15.80;;
23573;SDS011;11965;53.640;10.050;2023-04-28T04:02:47;16.14;;;16.12;;
23573;SDS011;11965;53.640;10.050;2023-04-28T04:05:15;16.63;;;16.55;;
23573;SDS011;11965;53.640;10.050;2023-04-28T04:07:42;16.56;;;16.32;;
23573;SDS011;11965;53.640;10.050;2023-04-28T04:10:09;15.92;;;15.71;;
23573;SDS011;11965;53.640;10.050;2023-04-28T04:12:39;17.57;;;17.05;;
23573;SDS011;11965;53.640;10.050;2023-04-28T04:15:06;16.37;;;15.92;;
23573;SDS011;11965;53.640;10.050;2023-04-28T04:17:36;16.57;;;16.34;;
23573;SDS011;11965;53.640;10.050;2023-04-28T04:20:03;15.75;;;15.74;;
23573;SDS011;11965;53.640;10.050;2023-04-28T04:22:31;16.03;;;15.84;;
23573;SDS011;11965;53.640;10.050;2023-04-28T04:24:57;16.88;;;16.27;;
23573;SDS011;11965;53.640;10.050;2023-04-28T04:27:25;17.63;;;16.88;;
23573;SDS011;11965;53.640;10.050;2023-04-28T04:29:52;16.12;;;15.94;;
23573;SDS011;11965;53.640;10.050;2023-04-28T04:32:19;15.96;;;15.69;;
23573;SDS011;11965;53.640;10.050;2023-04-28T04:34:49;15.62;;;15.47;;
23573;SDS011;11965;53.640;10.050;2023-04-28T04:37:16;15.20;;;14.99;;
23573;SDS011;11965;53.640;10.050;2023-04-28T04:39:50;16.32;;;15.86;;
23573;SDS011;11965;53.640;10.050;2023-04-28T04:42:17;14.85;;;14.46;;
23573;SDS011;11965;53.640;10.050;2023-04-28T04:44:46;13.30;;;13.20;;
23573;SDS011;11965;53.640;10.050;2023-04-28T04:47:25;12.65;;;12.64;;
23573;SDS011;11965;53.640;10.050;2023-04-28T04:49:54;13.00;;;12.69;;
23573;SDS011;11965;53.640;10.050;2023-04-28T04:52:21;12.06;;;11.97;;
23573;SDS011;11965;53.640;10.050;2023-04-28T04:54:49;12.22;;;12.19;;
23573;SDS011;11965;53.640;10.050;2023-04-28T04:57:17;12.13;;;12.04;;
23573;SDS011;11965;53.640;10.050;2023-04-28T05:00:05;12.71;;;12.19;;
23573;SDS011;11965;53.640;10.050;2023-04-28T05:02:34;11.71;;;11.55;;
23573;SDS011;11965;53.640;10.050;2023-04-28T05:05:04;11.20;;;11.18;;
23573;SDS011;11965;53.640;10.050;2023-04-28T05:07:33;11.49;;;11.25;;
23573;SDS011;11965;53.640;10.050;2023-04-28T05:10:00;11.11;;;11.02;;
23573;SDS011;11965;53.640;10.050;2023-04-28T05:12:28;10.42;;;10.38;;
23573;SDS011;11965;53.640;10.050;2023-04-28T05:14:55;10.68;;;10.65;;
23573;SDS011;11965;53.640;10.050;2023-04-28T05:17:22;10.98;;;10.90;;
23573;SDS011;11965;53.640;10.050;2023-04-28T05:19:49;10.28;;;10.27;;
23573;SDS011;11965;53.640;10.050;2023-04-28T05:22:18;10.15;;;10.15;;
23573;SDS011;11965;53.640;10.050;2023-04-28T05:24:45;9.69;;;9.69;;
23573;SDS011;11965;53.640;10.050;2023-04-28T05:27:12;10.13;;;10.13;;
23573;SDS011;11965;53.640;10.050;2023-04-28T05:29:39;9.46;;;9.46;;
23573;SDS011;11965;53.640;10.050;2023-04-28T05:32:06;9.11;;;9.11;;
23573;SDS011;11965;53.640;10.050;2023-04-28T05:34:33;9.26;;;9.24;;
23573;SDS011;11965;53.640;10.050;2023-04-28T05:37:00;9.07;;;9.07;;
23573;SDS011;11965;53.640;10.050;2023-04-28T05:39:30;8.73;;;8.73;;
23573;SDS011;11965;53.640;10.050;2023-04-28T05:42:00;8.59;;;8.59;;
23573;SDS011;11965;53.640;10.050;2023-04-28T05:44:29;8.32;;;8.31;;
23573;SDS011;11965;53.640;10.050;2023-04-28T05:46:56;8.42;;;8.36;;
23573;SDS011;11965;53.640;10.050;2023-04-28T05:49:25;8.30;;;8.26;;
23573;SDS011;11965;53.640;10.050;2023-04-28T05:51:52;8.56;;;8.38;;
23573;SDS011;11965;53.640;10.050;2023-04-28T05:54:22;7.79;;;7.72;;
23573;SDS011;11965;53.640;10.050;2023-04-28T05:56:53;7.71;;;7.71;;
23573;SDS011;11965;53.640;10.050;2023-04-28T05:59:20;7.43;;;7.43;;
23573;SDS011;11965;53.640;10.050;2023-04-28T06:01:47;7.61;;;7.61;;
23573;SDS011;11965;53.640;10.050;2023-04-28T06:04:15;7.47;;;7.47;;
23573;SDS011;11965;53.640;10.050;2023-04-28T06:06:42;7.27;;;7.27;;
23573;SDS011;11965;53.640;10.050;2023-04-28T06:09:08;7.28;;;7.28;;
23573;SDS011;11965;53.640;10.050;2023-04-28T06:11:35;7.05;;;7.04;;
23573;SDS011;11965;53.640;10.050;2023-04-28T06:14:04;6.49;;;6.49;;
23573;SDS011;11965;53.640;10.050;2023-04-28T06:16:30;6.55;;;6.55;;
23573;SDS011;11965;53.640;10.050;2023-04-28T06:18:57;6.59;;;6.59;;
23573;SDS011;11965;53.640;10.050;2023-04-28T06:21:24;6.71;;;6.71;;
23573;SDS011;11965;53.640;10.050;2023-04-28T06:23:52;6.27;;;6.27;;
23573;SDS011;11965;53.640;10.050;2023-04-28T06:26:20;6.44;;;6.44;;
23573;SDS011;11965;53.640;10.050;2023-04-28T06:28:47;6.29;;;6.29;;
23573;SDS011;11965;53.640;10.050;2023-04-28T06:31:16;6.14;;;6.13;;
23573;SDS011;11965;53.640;10.050;2023-04-28T06:33:43;6.68;;;6.67;;
23573;SDS011;11965;53.640;10.050;2023-04-28T06:36:09;6.26;;;6.22;;
23573;SDS011;11965;53.640;10.050;2023-04-28T06:38:38;6.34;;;6.34;;
23573;SDS011;11965;53.640;10.050;2023-04-28T06:41:05;6.17;;;6.16;;
23573;SDS011;11965;53.640;10.050;2023-04-28T06:43:32;6.03;;;6.03;;
23573;SDS011;11965;53.640;10.050;2023-04-28T06:46:13;6.31;;;6.31;;
23573;SDS011;11965;53.640;10.050;2023-04-28T06:48:42;6.37;;;6.37;;
23573;SDS011;11965;53.640;10.050;2023-04-28T06:51:14;5.57;;;5.57;;
23573;SDS011;11965;53.640;10.050;2023-04-28T06:53:41;5.94;;;5.94;;
23573;SDS011;11965;53.640;10.050;2023-04-28T06:56:08;5.77;;;5.77;;
23573;SDS011;11965;53.640;10.050;2023-04-28T06:58:35;5.55;;;5.55;;
23573;SDS011;11965;53.640;10.050;2023-04-28T07:01:02;5.74;;;5.71;;
23573;SDS011;11965;53.640;10.050;2023-04-28T07:03:29;5.59;;;5.59;;
23573;SDS011;11965;53.640;10.050;2023-04-28T07:05:58;5.43;;;5.43;;
23573;SDS011;11965;53.640;10.050;2023-04-28T07:08:25;5.84;;;5.84;;
23573;SDS011;11965;53.640;10.050;2023-04-28T07:10:54;5.63;;;5.63;;
23573;SDS011;11965;53.640;10.050;2023-04-28T07:13:20;5.53;;;5.53;;
23573;SDS011;11965;53.640;10.050;2023-04-28T07:15:47;5.22;;;5.22;;
23573;SDS011;11965;53.640;10.050;2023-04-28T07:18:14;5.36;;;5.36;;
23573;SDS011;11965;53.640;10.050;2023-04-28T07:20:41;5.51;;;5.51;;
23573;SDS011;11965;53.640;10.050;2023-04-28T07:23:09;5.37;;;5.37;;
23573;SDS011;11965;53.640;10.050;2023-04-28T07:25:36;5.31;;;5.31;;
23573;SDS011;11965;53.640;10.050;2023-04-28T07:28:04;5.68;;;5.68;;
23573;SDS011;11965;53.640;10.050;2023-04-28T07:30:33;5.55;;;5.55;;
23573;SDS011;11965;53.640;10.050;2023-04-28T07:33:01;5.31;;;5.31;;
23573;SDS011;11965;53.640;10.050;2023-04-28T07:35:28;4.78;;;4.78;;
23573;SDS011;11965;53.640;10.050;2023-04-28T07:37:55;5.01;;;5.01;;
23573;SDS011;11965;53.640;10.050;2023-04-28T07:40:23;5.00;;;5.00;;
23573;SDS011;11965;53.640;10.050;2023-04-28T07:42:50;4.76;;;4.76;;
23573;SDS011;11965;53.640;10.050;2023-04-28T07:45:17;4.75;;;4.75;;
23573;SDS011;11965;53.640;10.050;2023-04-28T07:47:44;4.85;;;4.85;;
23573;SDS011;11965;53.640;10.050;2023-04-28T07:50:11;4.97;;;4.97;;
23573;SDS011;11965;53.640;10.050;2023-04-28T07:52:38;4.78;;;4.78;;
23573;SDS011;11965;53.640;10.050;2023-04-28T07:55:05;4.57;;;4.57;;
23573;SDS011;11965;53.640;10.050;2023-04-28T07:57:33;4.64;;;4.64;;
23573;SDS011;11965;53.640;10.050;2023-04-28T08:00:02;4.85;;;4.85;;
23573;SDS011;11965;53.640;10.050;2023-04-28T08:02:37;4.39;;;4.39;;
23573;SDS011;11965;53.640;10.050;2023-04-28T08:05:04;4.79;;;4.79;;
23573;SDS011;11965;53.640;10.050;2023-04-28T08:07:32;5.00;;;5.00;;
23573;SDS011;11965;53.640;10.050;2023-04-28T08:09:59;4.91;;;4.91;;
23573;SDS011;11965;53.640;10.050;2023-04-28T08:12:25;5.50;;;5.50;;
23573;SDS011;11965;53.640;10.050;2023-04-28T08:14:54;4.83;;;4.83;;
23573;SDS011;11965;53.640;10.050;2023-04-28T08:17:21;5.03;;;5.03;;
23573;SDS011;11965;53.640;10.050;2023-04-28T08:19:48;5.05;;;5.05;;
23573;SDS011;11965;53.640;10.050;2023-04-28T08:22:15;5.00;;;5.00;;
23573;SDS011;11965;53.640;10.050;2023-04-28T08:24:42;5.02;;;5.02;;
23573;SDS011;11965;53.640;10.050;2023-04-28T08:27:09;4.97;;;4.97;;
23573;SDS011;11965;53.640;10.050;2023-04-28T08:29:36;5.17;;;5.17;;
23573;SDS011;11965;53.640;10.050;2023-04-28T08:32:06;5.09;;;5.09;;
23573;SDS011;11965;53.640;10.050;2023-04-28T08:34:32;5.18;;;5.18;;
23573;SDS011;11965;53.640;10.050;2023-04-28T08:36:59;5.45;;;5.45;;
23573;SDS011;11965;53.640;10.050;2023-04-28T08:39:27;5.78;;;5.78;;
23573;SDS011;11965;53.640;10.050;2023-04-28T08:41:55;5.57;;;5.57;;
23573;SDS011;11965;53.640;10.050;2023-04-28T08:44:22;5.59;;;5.59;;
23573;SDS011;11965;53.640;10.050;2023-04-28T08:46:49;5.58;;;5.58;;
23573;SDS011;11965;53.640;10.050;2023-04-28T08:49:25;5.65;;;5.65;;
23573;SDS011;11965;53.640;10.050;2023-04-28T08:52:01;5.68;;;5.68;;
23573;SDS011;11965;53.640;10.050;2023-04-28T08:54:35;5.87;;;5.87;;
23573;SDS011;11965;53.640;10.050;2023-04-28T08:57:05;6.13;;;6.13;;
23573;SDS011;11965;53.640;10.050;2023-04-28T08:59:36;5.82;;;5.82;;
23573;SDS011;11965;53.640;10.050;2023-04-28T09:02:05;5.92;;;5.92;;
23573;SDS011;11965;53.640;10.050;2023-04-28T09:04:34;6.17;;;6.17;;
23573;SDS011;11965;53.640;10.050;2023-04-28T09:07:02;6.23;;;6.23;;
23573;SDS011;11965;53.640;10.050;2023-04-28T09:09:29;6.52;;;6.52;;
23573;SDS011;11965;53.640;10.050;2023-04-28T09:11:56;6.45;;;6.45;;
23573;SDS011;11965;53.640;10.050;2023-04-28T09:14:25;6.86;;;6.86;;
23573;SDS011;11965;53.640;10.050;2023-04-28T09:16:53;6.27;;;6.27;;
23573;SDS011;11965;53.640;10.050;2023-04-28T09:19:21;6.37;;;6.37;;
23573;SDS011;11965;53.640;10.050;2023-04-28T09:21:50;6.88;;;6.88;;
23573;SDS011;11965;53.640;10.050;2023-04-28T09:24:26;6.75;;;6.75;;
23573;SDS011;11965;53.640;10.050;2023-04-28T09:26:54;6.72;;;6.72;;
23573;SDS011;11965;53.640;10.050;2023-04-28T09:29:21;6.78;;;6.78;;
23573;SDS011;11965;53.640;10.050;2023-04-28T09:31:48;6.42;;;6.42;;
23573;SDS011;11965;53.640;10.050;2023-04-28T09:34:15;6.30;;;6.30;;
23573;SDS011;11965;53.640;10.050;2023-04-28T09:36:42;6.70;;;6.70;;
23573;SDS011;11965;53.640;10.050;2023-04-28T09:39:10;6.31;;;6.31;;
23573;SDS011;11965;53.640;10.050;2023-04-28T09:41:37;6.79;;;6.79;;
23573;SDS011;11965;53.640;10.050;2023-04-28T09:44:09;6.09;;;6.09;;
23573;SDS011;11965;53.640;10.050;2023-04-28T09:46:38;5.60;;;5.60;;
23573;SDS011;11965;53.640;10.050;2023-04-28T09:49:08;5.73;;;5.73;;
23573;SDS011;11965;53.640;10.050;2023-04-28T09:51:36;5.98;;;5.98;;
23573;SDS011;11965;53.640;10.050;2023-04-28T09:54:03;6.10;;;6.10;;
23573;SDS011;11965;53.640;10.050;2023-04-28T09:56:32;5.68;;;5.68;;
23573;SDS011;11965;53.640;10.050;2023-04-28T09:59:02;6.03;;;6.03;;
23573;SDS011;11965;53.640;10.050;2023-04-28T10:01:31;5.97;;;5.97;;
23573;SDS011;11965;53.640;10.050;2023-04-28T10:04:02;6.51;;;6.51;;
23573;SDS011;11965;53.640;10.050;2023-04-28T10:06:30;6.20;;;6.20;;
23573;SDS011;11965;53.640;10.050;2023-04-28T10:09:01;6.47;;;6.47;;
23573;SDS011;11965;53.640;10.050;2023-04-28T10:11:28;6.20;;;6.20;;
23573;SDS011;11965;53.640;10.050;2023-04-28T10:13:57;6.66;;;6.66;;
23573;SDS011;11965;53.640;10.050;2023-04-28T10:16:24;5.99;;;5.99;;
23573;SDS011;11965;53.640;10.050;2023-04-28T10:18:57;6.05;;;6.05;;
23573;SDS011;11965;53.640;10.050;2023-04-28T10:21:24;6.45;;;6.45;;
23573;SDS011;11965;53.640;10.050;2023-04-28T10:24:08;6.61;;;6.61;;
23573;SDS011;11965;53.640;10.050;2023-04-28T10:29:34;6.44;;;6.44;;
23573;SDS011;11965;53.640;10.050;2023-04-28T10:32:18;6.46;;;6.46;;
23573;SDS011;11965;53.640;10.050;2023-04-28T10:34:50;6.16;;;6.16;;
23573;SDS011;11965;53.640;10.050;2023-04-28T10:37:17;6.17;;;6.17;;
23573;SDS011;11965;53.640;10.050;2023-04-28T10:42:54;6.78;;;6.78;;
23573;SDS011;11965;53.640;10.050;2023-04-28T10:51:33;6.53;;;6.53;;
23573;SDS011;11965;53.640;10.050;2023-04-28T10:54:14;6.79;;;6.79;;
23573;SDS011;11965;53.640;10.050;2023-04-28T10:59:41;7.21;;;7.21;;
23573;SDS011;11965;53.640;10.050;2023-04-28T11:02:35;6.85;;;6.85;;
23573;SDS011;11965;53.640;10.050;2023-04-28T11:05:09;6.84;;;6.84;;
23573;SDS011;11965;53.640;10.050;2023-04-28T11:07:40;7.09;;;7.09;;
23573;SDS011;11965;53.640;10.050;2023-04-28T11:13:47;7.11;;;7.11;;
23573;SDS011;11965;53.640;10.050;2023-04-28T11:16:15;7.28;;;7.28;;
23573;SDS011;11965;53.640;10.050;2023-04-28T11:19:01;7.32;;;7.32;;
23573;SDS011;11965;53.640;10.050;2023-04-28T11:21:30;6.95;;;6.95;;
23573;SDS011;11965;53.640;10.050;2023-04-28T11:23:58;6.82;;;6.82;;
23573;SDS011;11965;53.640;10.050;2023-04-28T11:26:25;6.92;;;6.92;;
23573;SDS011;11965;53.640;10.050;2023-04-28T11:28:54;6.98;;;6.98;;
23573;SDS011;11965;53.640;10.050;2023-04-28T11:31:23;7.40;;;7.40;;
23573;SDS011;11965;53.640;10.050;2023-04-28T11:33:52;7.15;;;7.15;;
23573;SDS011;11965;53.640;10.050;2023-04-28T11:36:32;7.37;;;7.37;;
23573;SDS011;11965;53.640;10.050;2023-04-28T11:39:01;7.11;;;7.11;;
23573;SDS011;11965;53.640;10.050;2023-04-28T11:41:32;7.13;;;7.13;;
23573;SDS011;11965;53.640;10.050;2023-04-28T11:44:08;7.55;;;7.55;;
23573;SDS011;11965;53.640;10.050;2023-04-28T11:46:35;7.84;;;7.84;;
23573;SDS011;11965;53.640;10.050;2023-04-28T11:49:12;7.31;;;7.31;;
23573;SDS011;11965;53.640;10.050;2023-04-28T11:51:41;7.37;;;7.37;;
23573;SDS011;11965;53.640;10.050;2023-04-28T11:54:10;6.96;;;6.96;;
23573;SDS011;11965;53.640;10.050;2023-04-28T11:56:39;7.24;;;7.24;;
23573;SDS011;11965;53.640;10.050;2023-04-28T11:59:07;7.37;;;7.37;;
23573;SDS011;11965;53.640;10.050;2023-04-28T12:01:43;7.88;;;7.88;;
23573;SDS011;11965;53.640;10.050;2023-04-28T12:04:15;7.29;;;7.29;;
23573;SDS011;11965;53.640;10.050;2023-04-28T12:06:59;7.50;;;7.50;;
23573;SDS011;11965;53.640;10.050;2023-04-28T12:09:27;7.76;;;7.76;;
23573;SDS011;11965;53.640;10.050;2023-04-28T12:11:55;7.48;;;7.48;;
23573;SDS011;11965;53.640;10.050;2023-04-28T12:14:23;7.22;;;7.22;;
23573;SDS011;11965;53.640;10.050;2023-04-28T12:16:50;7.64;;;7.64;;
23573;SDS011;11965;53.640;10.050;2023-04-28T12:19:19;7.22;;;7.22;;
23573;SDS011;11965;53.640;10.050;2023-04-28T12:21:59;7.90;;;7.90;;
23573;SDS011;11965;53.640;10.050;2023-04-28T12:24:28;7.75;;;7.75;;
23573;SDS011;11965;53.640;10.050;2023-04-28T12:29:41;7.46;;;7.46;;
23573;SDS011;11965;53.640;10.050;2023-04-28T12:32:10;7.12;;;7.12;;
23573;SDS011;11965;53.640;10.050;2023-04-28T12:34:39;7.71;;;7.71;;
23573;SDS011;11965;53.640;10.050;2023-04-28T12:37:07;7.82;;;7.82;;
23573;SDS011;11965;53.640;10.050;2023-04-28T12:39:35;7.74;;;7.74;;
23573;SDS011;11965;53.640;10.050;2023-04-28T12:42:02;7.55;;;7.55;;
23573;SDS011;11965;53.640;10.050;2023-04-28T12:44:33;7.24;;;7.24;;
23573;SDS011;11965;53.640;10.050;2023-04-28T12:47:02;7.67;;;7.67;;
23573;SDS011;11965;53.640;10.050;2023-04-28T12:49:31;7.40;;;7.40;;
23573;SDS011;11965;53.640;10.050;2023-04-28T12:52:00;7.97;;;7.97;;
23573;SDS011;11965;53.640;10.050;2023-04-28T12:54:27;8.25;;;8.25;;
23573;SDS011;11965;53.640;10.050;2023-04-28T12:56:54;7.69;;;7.69;;
23573;SDS011;11965;53.640;10.050;2023-04-28T12:59:21;7.58;;;7.58;;
23573;SDS011;11965;53.640;10.050;2023-04-28T13:01:49;8.00;;;8.00;;
23573;SDS011;11965;53.640;10.050;2023-04-28T13:04:16;8.19;;;8.19;;
23573;SDS011;11965;53.640;10.050;2023-04-28T13:06:43;8.32;;;8.32;;
23573;SDS011;11965;53.640;10.050;2023-04-28T13:09:16;8.20;;;8.20;;
23573;SDS011;11965;53.640;10.050;2023-04-28T13:11:43;8.47;;;8.47;;
23573;SDS011;11965;53.640;10.050;2023-04-28T13:14:10;7.83;;;7.83;;
23573;SDS011;11965;53.640;10.050;2023-04-28T13:16:37;8.05;;;8.05;;
23573;SDS011;11965;53.640;10.050;2023-04-28T13:19:04;8.02;;;8.02;;
23573;SDS011;11965;53.640;10.050;2023-04-28T13:21:35;7.51;;;7.51;;
23573;SDS011;11965;53.640;10.050;2023-04-28T13:24:03;8.06;;;8.06;;
23573;SDS011;11965;53.640;10.050;2023-04-28T13:26:32;8.33;;;8.33;;
23573;SDS011;11965;53.640;10.050;2023-04-28T13:28:58;8.77;;;8.77;;
23573;SDS011;11965;53.640;10.050;2023-04-28T13:31:28;8.30;;;8.30;;
23573;SDS011;11965;53.640;10.050;2023-04-28T13:33:55;8.99;;;8.99;;
23573;SDS011;11965;53.640;10.050;2023-04-28T13:36:22;8.48;;;8.48;;
23573;SDS011;11965;53.640;10.050;2023-04-28T13:38:49;8.94;;;8.94;;
23573;SDS011;11965;53.640;10.050;2023-04-28T13:41:16;8.63;;;8.63;;
23573;SDS011;11965;53.640;10.050;2023-04-28T13:43:45;8.89;;;8.89;;
23573;SDS011;11965;53.640;10.050;2023-04-28T13:46:12;8.72;;;8.72;;
23573;SDS011;11965;53.640;10.050;2023-04-28T13:48:39;8.91;;;8.91;;
23573;SDS011;11965;53.640;10.050;2023-04-28T13:51:06;8.97;;;8.97;;
23573;SDS011;11965;53.640;10.050;2023-04-28T13:53:34;9.18;;;9.18;;
23573;SDS011;11965;53.640;10.050;2023-04-28T13:56:02;9.18;;;9.18;;
23573;SDS011;11965;53.640;10.050;2023-04-28T13:58:30;8.86;;;8.86;;
23573;SDS011;11965;53.640;10.050;2023-04-28T14:00:58;9.50;;;9.50;;
23573;SDS011;11965;53.640;10.050;2023-04-28T14:03:25;9.11;;;9.11;;
23573;SDS011;11965;53.640;10.050;2023-04-28T14:05:53;8.50;;;8.50;;
23573;SDS011;11965;53.640;10.050;2023-04-28T14:08:23;8.35;;;8.35;;
23573;SDS011;11965;53.640;10.050;2023-04-28T14:10:50;8.92;;;8.92;;
23573;SDS011;11965;53.640;10.050;2023-04-28T14:13:17;8.93;;;8.93;;
23573;SDS011;11965;53.640;10.050;2023-04-28T14:15:45;8.42;;;8.42;;
23573;SDS011;11965;53.640;10.050;2023-04-28T14:18:13;7.42;;;7.42;;
23573;SDS011;11965;53.640;10.050;2023-04-28T14:20:40;7.74;;;7.74;;
23573;SDS011;11965;53.640;10.050;2023-04-28T14:23:08;7.57;;;7.57;;
23573;SDS011;11965;53.640;10.050;2023-04-28T14:25:35;7.40;;;7.40;;
23573;SDS011;11965;53.640;10.050;2023-04-28T14:28:02;7.68;;;7.68;;
23573;SDS011;11965;53.640;10.050;2023-04-28T14:30:29;7.41;;;7.41;;
23573;SDS011;11965;53.640;10.050;2023-04-28T14:32:56;7.40;;;7.40;;
23573;SDS011;11965;53.640;10.050;2023-04-28T14:35:24;6.75;;;6.75;;
23573;SDS011;11965;53.640;10.050;2023-04-28T14:37:52;6.83;;;6.83;;
23573;SDS011;11965;53.640;10.050;2023-04-28T14:40:19;6.74;;;6.74;;
23573;SDS011;11965;53.640;10.050;2023-04-28T14:42:46;7.63;;;7.63;;
23573;SDS011;11965;53.640;10.050;2023-04-28T14:45:15;7.42;;;7.42;;
23573;SDS011;11965;53.640;10.050;2023-04-28T14:47:42;7.86;;;7.86;;
23573;SDS011;11965;53.640;10.050;2023-04-28T14:50:09;7.77;;;7.77;;
23573;SDS011;11965;53.640;10.050;2023-04-28T14:52:38;7.71;;;7.71;;
23573;SDS011;11965;53.640;10.050;2023-04-28T14:55:05;7.82;;;7.82;;